Time;durP1;ratioP1;P1;durP2;ratioP2;P2;SDS_P1;SDS_P2;PMS_P1;PMS_P2;Temp;Humidity;BMP_temperature;BMP_pressure;BME280_temperature;BME280_humidity;BME280_pressure;Samples;Min_cycle;Max_cycle;Signal;HPM_P1;HPM_P2
2023/08/28 00:01:04;;;;;;;0.60;0.60;;;;;;;;;;5156721;27;20228;-85
2023/08/28 00:03:32;;;;;;;3.00;1.23;;;;;;;;;;5156231;27;20262;-85
2023/08/28 00:06:02;;;;;;;0.50;0.50;;;;;;;;;;5156718;27;20189;-86
2023/08/28 00:08:31;;;;;;;1.00;1.00;;;;;;;;;;5156198;27;20229;-85
2023/08/28 00:11:00;;;;;;;0.50;0.50;;;;;;;;;;5156494;27;20196;-85
2023/08/28 00:13:28;;;;;;;0.77;0.77;;;;;;;;;;5156158;27;20204;-85
2023/08/28 00:15:56;;;;;;;0.50;0.50;;;;;;;;;;5156836;27;20196;-85
2023/08/28 00:18:25;;;;;;;0.70;0.70;;;;;;;;;;5156336;27;20215;-85
2023/08/28 00:20:53;;;;;;;1.40;1.30;;;;;;;;;;5156290;27;20194;-85
2023/08/28 00:23:23;;;;;;;0.50;0.50;;;;;;;;;;5156174;27;20253;-86
2023/08/28 00:25:52;;;;;;;0.80;0.80;;;;;;;;;;5156849;27;20206;-85
2023/08/28 00:28:20;;;;;;;0.80;0.77;;;;;;;;;;5155626;27;20208;-85
2023/08/28 00:30:49;;;;;;;1.27;1.27;;;;;;;;;;5156088;27;20265;-86
2023/08/28 00:33:17;;;;;;;0.67;0.67;;;;;;;;;;5156413;27;20198;-86
2023/08/28 00:35:46;;;;;;;0.80;0.80;;;;;;;;;;5156344;27;20189;-85
2023/08/28 00:38:14;;;;;;;0.50;0.50;;;;;;;;;;5155982;27;20198;-85
2023/08/28 00:40:44;;;;;;;0.40;0.40;;;;;;;;;;5155916;27;20472;-85
2023/08/28 00:43:13;;;;;;;0.90;0.90;;;;;;;;;;5155778;27;20229;-86
2023/08/28 00:45:42;;;;;;;0.40;0.40;;;;;;;;;;5155986;27;20202;-85
2023/08/28 00:48:12;;;;;;;1.53;1.43;;;;;;;;;;5155651;27;20206;-85
2023/08/28 00:50:41;;;;;;;0.30;0.30;;;;;;;;;;5156041;27;20225;-85
2023/08/28 00:53:11;;;;;;;0.40;0.40;;;;;;;;;;5156060;27;20190;-85
2023/08/28 00:55:40;;;;;;;0.50;0.50;;;;;;;;;;5155268;27;20235;-82
2023/08/28 00:58:10;;;;;;;0.60;0.60;;;;;;;;;;5155277;27;20194;-82
2023/08/28 01:00:39;;;;;;;0.63;0.63;;;;;;;;;;5155580;27;20195;-82
2023/08/28 01:03:07;;;;;;;0.40;0.40;;;;;;;;;;5155023;27;20222;-82
2023/08/28 01:05:40;;;;;;;0.53;0.53;;;;;;;;;;5155107;27;20234;-82
2023/08/28 01:08:19;;;;;;;0.40;0.40;;;;;;;;;;5155268;27;20194;-82
2023/08/28 01:10:50;;;;;;;0.30;0.30;;;;;;;;;;5156016;27;20227;-82
2023/08/28 01:13:23;;;;;;;0.33;0.33;;;;;;;;;;5155397;27;20195;-83
2023/08/28 01:15:52;;;;;;;0.40;0.40;;;;;;;;;;5155275;27;20204;-82
2023/08/28 01:18:21;;;;;;;0.40;0.40;;;;;;;;;;5155396;27;20212;-82
2023/08/28 01:20:51;;;;;;;0.53;0.53;;;;;;;;;;5155301;27;20203;-82
2023/08/28 01:23:23;;;;;;;0.70;0.70;;;;;;;;;;5154613;27;20221;-82
2023/08/28 01:25:54;;;;;;;0.40;0.40;;;;;;;;;;5154781;27;20195;-82
2023/08/28 01:28:23;;;;;;;1.80;1.70;;;;;;;;;;5154913;27;20205;-83
2023/08/28 01:30:53;;;;;;;0.30;0.30;;;;;;;;;;5155057;27;20198;-83
2023/08/28 01:33:22;;;;;;;0.37;0.37;;;;;;;;;;5154747;27;20249;-83
2023/08/28 01:35:54;;;;;;;0.80;0.80;;;;;;;;;;5155163;27;20203;-86
2023/08/28 01:38:26;;;;;;;0.70;0.70;;;;;;;;;;5154625;27;20228;-85
2023/08/28 01:40:57;;;;;;;1.23;0.93;;;;;;;;;;5154800;27;20203;-85
2023/08/28 01:43:29;;;;;;;0.60;0.60;;;;;;;;;;5154632;27;20233;-86
2023/08/28 01:45:58;;;;;;;0.40;0.40;;;;;;;;;;5154992;27;20203;-85
2023/08/28 01:48:28;;;;;;;0.40;0.40;;;;;;;;;;5154626;27;20210;-85
2023/08/28 01:50:57;;;;;;;0.40;0.40;;;;;;;;;;5154492;27;20214;-86
2023/08/28 01:53:25;;;;;;;0.90;0.57;;;;;;;;;;5154619;27;20198;-86
2023/08/28 01:56:12;;;;;;;0.40;0.40;;;;;;;;;;5154595;27;20234;-86
2023/08/28 01:58:42;;;;;;;0.50;0.50;;;;;;;;;;5140801;27;20225;-85
2023/08/28 02:01:11;;;;;;;0.70;0.70;;;;;;;;;;5154462;27;20195;-82
2023/08/28 02:03:40;;;;;;;0.40;0.40;;;;;;;;;;5154305;27;20218;-82
2023/08/28 02:06:09;;;;;;;0.63;0.63;;;;;;;;;;5154392;27;20227;-82
2023/08/28 02:08:38;;;;;;;0.93;0.93;;;;;;;;;;5153821;27;20206;-82
2023/08/28 02:11:06;;;;;;;0.30;0.30;;;;;;;;;;5154381;27;20201;-82
2023/08/28 02:13:35;;;;;;;0.37;0.37;;;;;;;;;;5153317;27;20198;-82
2023/08/28 02:16:05;;;;;;;0.40;0.40;;;;;;;;;;5153697;27;20263;-84
2023/08/28 02:18:33;;;;;;;0.50;0.50;;;;;;;;;;5153754;27;20202;-82
2023/08/28 02:21:01;;;;;;;0.30;0.30;;;;;;;;;;5154418;27;20191;-82
2023/08/28 02:23:30;;;;;;;0.50;0.50;;;;;;;;;;5153709;27;20243;-82
2023/08/28 02:25:59;;;;;;;0.30;0.30;;;;;;;;;;5153938;27;20216;-82
2023/08/28 02:28:27;;;;;;;0.97;0.97;;;;;;;;;;5153829;27;20202;-83
2023/08/28 02:30:58;;;;;;;0.87;0.50;;;;;;;;;;5154301;27;20197;-82
2023/08/28 02:33:28;;;;;;;0.30;0.30;;;;;;;;;;5153531;27;20249;-83
2023/08/28 02:35:57;;;;;;;0.30;0.30;;;;;;;;;;5154116;27;20201;-82
2023/08/28 02:38:25;;;;;;;0.47;0.47;;;;;;;;;;5153687;27;20199;-82
2023/08/28 02:40:54;;;;;;;2.03;1.93;;;;;;;;;;5154020;27;20202;-82
2023/08/28 02:43:22;;;;;;;0.60;0.60;;;;;;;;;;5153257;27;20229;-82
2023/08/28 02:45:50;;;;;;;0.30;0.30;;;;;;;;;;5153764;27;20209;-82
2023/08/28 02:48:19;;;;;;;0.40;0.40;;;;;;;;;;5153948;27;20214;-82
2023/08/28 02:50:51;;;;;;;0.40;0.40;;;;;;;;;;5153418;27;20210;-83
2023/08/28 02:53:19;;;;;;;0.40;0.40;;;;;;;;;;5153479;27;20258;-83
2023/08/28 02:56:03;;;;;;;0.40;0.40;;;;;;;;;;5153343;27;20230;-85
2023/08/28 02:58:31;;;;;;;0.40;0.40;;;;;;;;;;5153197;27;20261;-85
2023/08/28 03:01:00;;;;;;;0.40;0.40;;;;;;;;;;5153367;27;20213;-85
2023/08/28 03:03:28;;;;;;;0.40;0.40;;;;;;;;;;5153765;27;20244;-86
2023/08/28 03:05:58;;;;;;;0.40;0.40;;;;;;;;;;5153476;27;20198;-86
2023/08/28 03:08:26;;;;;;;0.30;0.30;;;;;;;;;;5153157;27;20201;-85
2023/08/28 03:10:55;;;;;;;0.40;0.40;;;;;;;;;;5153034;27;20189;-85
2023/08/28 03:13:23;;;;;;;0.40;0.40;;;;;;;;;;5153518;27;20198;-85
2023/08/28 03:15:52;;;;;;;0.87;0.87;;;;;;;;;;5153284;27;20201;-85
2023/08/28 03:18:20;;;;;;;0.40;0.40;;;;;;;;;;5152641;27;20194;-85
2023/08/28 03:20:49;;;;;;;0.40;0.40;;;;;;;;;;5152898;27;20199;-85
2023/08/28 03:23:19;;;;;;;0.30;0.30;;;;;;;;;;5152956;27;20207;-85
2023/08/28 03:25:47;;;;;;;0.40;0.40;;;;;;;;;;5155745;27;20226;-86
2023/08/28 03:28:15;;;;;;;0.40;0.40;;;;;;;;;;5157015;27;20205;-85
2023/08/28 03:30:44;;;;;;;0.40;0.40;;;;;;;;;;5157082;27;20186;-85
2023/08/28 03:33:12;;;;;;;0.50;0.50;;;;;;;;;;5157059;27;20206;-86
2023/08/28 03:35:41;;;;;;;0.40;0.40;;;;;;;;;;5156688;27;20198;-85
2023/08/28 03:38:11;;;;;;;0.40;0.40;;;;;;;;;;5157505;27;20312;-85
2023/08/28 03:40:41;;;;;;;0.40;0.40;;;;;;;;;;5157046;27;20224;-85
2023/08/28 03:43:09;;;;;;;0.60;0.60;;;;;;;;;;5157220;27;20255;-85
2023/08/28 03:45:37;;;;;;;0.40;0.40;;;;;;;;;;5156873;27;20201;-85
2023/08/28 03:48:06;;;;;;;0.40;0.40;;;;;;;;;;5156864;27;20206;-86
2023/08/28 03:50:35;;;;;;;0.40;0.40;;;;;;;;;;5157044;27;20224;-85
2023/08/28 03:53:03;;;;;;;0.47;0.47;;;;;;;;;;5156673;27;20213;-85
2023/08/28 03:55:32;;;;;;;0.40;0.40;;;;;;;;;;5156380;27;20224;-86
2023/08/28 03:58:02;;;;;;;0.40;0.40;;;;;;;;;;5157184;27;20205;-85
2023/08/28 04:00:33;;;;;;;1.57;1.57;;;;;;;;;;5156808;27;20292;-86
2023/08/28 04:03:02;;;;;;;0.40;0.40;;;;;;;;;;5156823;27;20414;-85
2023/08/28 04:05:32;;;;;;;0.40;0.40;;;;;;;;;;5156863;27;20212;-85
2023/08/28 04:08:01;;;;;;;0.40;0.40;;;;;;;;;;5157312;27;20265;-85
2023/08/28 04:10:30;;;;;;;0.40;0.40;;;;;;;;;;5156577;27;20197;-86
2023/08/28 04:12:58;;;;;;;0.40;0.40;;;;;;;;;;5156758;27;20200;-85
2023/08/28 04:15:28;;;;;;;0.40;0.40;;;;;;;;;;5157166;27;20211;-85
2023/08/28 04:17:59;;;;;;;0.40;0.40;;;;;;;;;;5156984;27;20236;-85
2023/08/28 04:20:28;;;;;;;0.40;0.40;;;;;;;;;;5156513;27;20234;-85
2023/08/28 04:22:56;;;;;;;0.50;0.50;;;;;;;;;;5156691;27;20205;-85
2023/08/28 04:25:25;;;;;;;0.60;0.60;;;;;;;;;;5156675;27;20225;-85
2023/08/28 04:27:54;;;;;;;0.40;0.40;;;;;;;;;;5156013;27;20277;-83
2023/08/28 04:30:23;;;;;;;0.67;0.67;;;;;;;;;;5156021;27;20205;-83
2023/08/28 04:32:53;;;;;;;0.40;0.40;;;;;;;;;;5156536;27;20223;-82
2023/08/28 04:35:21;;;;;;;0.40;0.40;;;;;;;;;;5156575;27;20194;-82
2023/08/28 04:37:51;;;;;;;0.40;0.40;;;;;;;;;;5155057;27;20200;-83
2023/08/28 04:40:20;;;;;;;0.40;0.40;;;;;;;;;;5156750;27;20233;-82
2023/08/28 04:42:48;;;;;;;0.40;0.40;;;;;;;;;;5156586;27;20205;-82
2023/08/28 04:45:17;;;;;;;0.40;0.40;;;;;;;;;;5156224;27;20222;-83
2023/08/28 04:47:45;;;;;;;0.40;0.40;;;;;;;;;;5155805;27;20206;-82
2023/08/28 04:50:15;;;;;;;0.40;0.40;;;;;;;;;;5156400;27;20209;-81
2023/08/28 04:52:44;;;;;;;0.40;0.40;;;;;;;;;;5156766;27;20214;-85
2023/08/28 04:55:12;;;;;;;0.40;0.40;;;;;;;;;;5156187;27;20241;-85
2023/08/28 04:57:41;;;;;;;0.40;0.40;;;;;;;;;;5156068;27;20209;-86
2023/08/28 05:00:10;;;;;;;0.40;0.40;;;;;;;;;;5155998;27;20292;-85
2023/08/28 05:02:38;;;;;;;0.77;0.77;;;;;;;;;;5155954;27;20189;-85
2023/08/28 05:05:07;;;;;;;0.70;0.70;;;;;;;;;;5155435;27;20216;-82
2023/08/28 05:07:37;;;;;;;0.40;0.40;;;;;;;;;;5155949;27;20225;-83
2023/08/28 05:10:06;;;;;;;0.40;0.40;;;;;;;;;;5156109;27;20193;-82
2023/08/28 05:12:35;;;;;;;0.40;0.40;;;;;;;;;;5155453;27;20206;-82
2023/08/28 05:15:04;;;;;;;0.43;0.43;;;;;;;;;;5155551;27;20194;-82
2023/08/28 05:17:32;;;;;;;0.40;0.40;;;;;;;;;;5155513;27;20202;-83
2023/08/28 05:20:01;;;;;;;0.40;0.40;;;;;;;;;;5156221;27;20269;-83
2023/08/28 05:22:29;;;;;;;0.40;0.40;;;;;;;;;;5155427;27;20230;-82
2023/08/28 05:24:59;;;;;;;0.40;0.40;;;;;;;;;;5154978;27;20230;-83
2023/08/28 05:27:28;;;;;;;0.40;0.40;;;;;;;;;;5155244;27;20211;-82
2023/08/28 05:29:56;;;;;;;0.50;0.50;;;;;;;;;;5155434;27;20198;-82
2023/08/28 05:32:25;;;;;;;0.40;0.40;;;;;;;;;;5154831;27;20205;-82
2023/08/28 05:34:57;;;;;;;4.80;1.13;;;;;;;;;;5154929;27;20190;-82
2023/08/28 05:37:26;;;;;;;0.40;0.40;;;;;;;;;;5154927;27;20194;-84
2023/08/28 05:39:55;;;;;;;0.40;0.40;;;;;;;;;;5154794;27;20206;-83
2023/08/28 05:42:25;;;;;;;0.90;0.90;;;;;;;;;;5155020;27;20206;-83
2023/08/28 05:44:53;;;;;;;0.60;0.60;;;;;;;;;;5155063;27;20275;-83
2023/08/28 05:47:21;;;;;;;0.40;0.40;;;;;;;;;;5154874;27;20206;-82
2023/08/28 05:49:50;;;;;;;0.40;0.40;;;;;;;;;;5154566;27;20202;-82
2023/08/28 05:52:18;;;;;;;0.40;0.40;;;;;;;;;;5154888;27;20223;-82
2023/08/28 05:54:47;;;;;;;0.40;0.40;;;;;;;;;;5154799;27;20244;-82
2023/08/28 05:57:15;;;;;;;0.40;0.40;;;;;;;;;;5154912;27;20248;-83
2023/08/28 05:59:45;;;;;;;0.40;0.40;;;;;;;;;;5154165;27;20206;-82
2023/08/28 06:02:14;;;;;;;0.30;0.30;;;;;;;;;;5154662;27;20219;-82
2023/08/28 06:04:45;;;;;;;0.40;0.40;;;;;;;;;;5154681;27;20225;-83
2023/08/28 06:07:13;;;;;;;0.40;0.40;;;;;;;;;;5154501;27;20292;-82
2023/08/28 06:09:43;;;;;;;0.40;0.40;;;;;;;;;;5154577;27;20293;-83
2023/08/28 06:12:11;;;;;;;0.40;0.40;;;;;;;;;;5155002;27;20202;-82
2023/08/28 06:14:40;;;;;;;0.40;0.40;;;;;;;;;;5154525;27;20206;-82
2023/08/28 06:17:10;;;;;;;1.13;1.03;;;;;;;;;;5154749;27;20251;-83
2023/08/28 06:19:38;;;;;;;0.30;0.30;;;;;;;;;;5154649;27;20195;-82
2023/08/28 06:22:07;;;;;;;0.30;0.30;;;;;;;;;;5154882;27;20205;-83
2023/08/28 06:24:35;;;;;;;0.40;0.40;;;;;;;;;;5155027;27;20218;-82
2023/08/28 06:27:04;;;;;;;0.30;0.30;;;;;;;;;;5155690;27;20195;-83
2023/08/28 06:29:33;;;;;;;0.40;0.40;;;;;;;;;;5155481;27;20342;-83
2023/08/28 06:32:01;;;;;;;1.60;1.50;;;;;;;;;;5155573;27;20223;-82
2023/08/28 06:34:31;;;;;;;0.43;0.43;;;;;;;;;;5155073;27;20207;-82
2023/08/28 06:37:02;;;;;;;0.93;0.83;;;;;;;;;;5155061;27;20195;-83
2023/08/28 06:39:31;;;;;;;0.30;0.30;;;;;;;;;;5153890;27;20206;-83
2023/08/28 06:42:00;;;;;;;0.83;0.83;;;;;;;;;;5154692;27;20297;-83
2023/08/28 06:44:29;;;;;;;0.40;0.40;;;;;;;;;;5153872;27;20244;-84
2023/08/28 06:46:57;;;;;;;0.60;0.60;;;;;;;;;;5154806;27;20207;-83
2023/08/28 06:49:26;;;;;;;0.30;0.30;;;;;;;;;;5155499;27;20206;-83
2023/08/28 06:51:56;;;;;;;0.30;0.30;;;;;;;;;;5154364;27;20230;-83
2023/08/28 06:54:25;;;;;;;0.30;0.30;;;;;;;;;;5154788;27;20259;-84
2023/08/28 06:57:03;;;;;;;0.30;0.30;;;;;;;;;;5154829;27;20202;-84
2023/08/28 06:59:32;;;;;;;0.40;0.40;;;;;;;;;;5154127;27;20195;-83
2023/08/28 07:02:00;;;;;;;0.30;0.30;;;;;;;;;;5156330;27;20201;-86
2023/08/28 07:04:29;;;;;;;0.50;0.50;;;;;;;;;;5158226;27;20235;-87
2023/08/28 07:06:59;;;;;;;0.40;0.40;;;;;;;;;;5158972;27;20227;-86
2023/08/28 07:09:28;;;;;;;0.30;0.30;;;;;;;;;;5157799;27;20195;-86
2023/08/28 07:11:56;;;;;;;0.80;0.80;;;;;;;;;;5158518;27;20200;-87
2023/08/28 07:14:25;;;;;;;0.30;0.30;;;;;;;;;;5157314;27;20197;-87
2023/08/28 07:16:54;;;;;;;0.30;0.30;;;;;;;;;;5159082;27;20289;-86
2023/08/28 07:19:23;;;;;;;0.60;0.60;;;;;;;;;;5158859;27;20254;-87
2023/08/28 07:21:52;;;;;;;0.33;0.33;;;;;;;;;;5158633;27;20183;-86
2023/08/28 07:24:22;;;;;;;0.40;0.40;;;;;;;;;;5158812;27;20202;-87
2023/08/28 07:26:50;;;;;;;0.70;0.70;;;;;;;;;;5158246;27;20222;-87
2023/08/28 07:29:19;;;;;;;1.27;1.27;;;;;;;;;;5158008;27;20200;-85
2023/08/28 07:31:48;;;;;;;0.30;0.30;;;;;;;;;;5156929;27;20222;-86
2023/08/28 07:34:19;;;;;;;1.97;0.50;;;;;;;;;;5157290;27;20205;-86
2023/08/28 07:36:47;;;;;;;0.63;0.63;;;;;;;;;;5158404;27;20233;-87
2023/08/28 07:39:19;;;;;;;1.70;0.93;;;;;;;;;;5157940;27;20211;-86
2023/08/28 07:41:49;;;;;;;0.50;0.50;;;;;;;;;;5158995;27;20292;-87
2023/08/28 07:44:18;;;;;;;1.30;0.83;;;;;;;;;;5158862;27;20190;-87
2023/08/28 07:46:47;;;;;;;0.53;0.53;;;;;;;;;;5158167;27;20216;-87
2023/08/28 07:49:15;;;;;;;1.20;1.17;;;;;;;;;;5157450;27;20211;-87
2023/08/28 07:51:44;;;;;;;0.60;0.60;;;;;;;;;;5158326;27;20214;-87
2023/08/28 07:54:13;;;;;;;0.53;0.53;;;;;;;;;;5158309;27;20205;-87
2023/08/28 07:56:42;;;;;;;0.40;0.40;;;;;;;;;;5158169;27;20276;-87
2023/08/28 07:59:12;;;;;;;0.50;0.50;;;;;;;;;;5157711;27;20249;-87
2023/08/28 08:01:41;;;;;;;0.40;0.40;;;;;;;;;;5157114;27;20205;-87
2023/08/28 08:04:10;;;;;;;0.57;0.57;;;;;;;;;;5155793;27;20248;-87
2023/08/28 08:06:38;;;;;;;0.40;0.40;;;;;;;;;;5157753;27;20212;-87
2023/08/28 08:09:07;;;;;;;0.73;0.73;;;;;;;;;;5157417;27;20200;-87
2023/08/28 08:11:36;;;;;;;0.70;0.70;;;;;;;;;;5156684;27;20199;-87
2023/08/28 08:14:05;;;;;;;0.30;0.30;;;;;;;;;;5161791;27;20197;-88
2023/08/28 08:16:35;;;;;;;0.50;0.50;;;;;;;;;;5161145;27;20233;-87
2023/08/28 08:19:04;;;;;;;0.80;0.80;;;;;;;;;;5160892;27;20298;-87
2023/08/28 08:21:33;;;;;;;0.50;0.50;;;;;;;;;;5160911;27;20208;-87
2023/08/28 08:24:01;;;;;;;0.50;0.50;;;;;;;;;;5161176;27;20248;-87
2023/08/28 08:26:30;;;;;;;0.30;0.30;;;;;;;;;;5160358;27;20203;-87
2023/08/28 08:29:01;;;;;;;0.70;0.70;;;;;;;;;;5161014;27;20206;-87
2023/08/28 08:31:32;;;;;;;0.53;0.53;;;;;;;;;;5161229;27;20203;-87
2023/08/28 08:34:02;;;;;;;1.30;0.80;;;;;;;;;;5161039;27;20199;-87
2023/08/28 08:36:31;;;;;;;0.40;0.40;;;;;;;;;;5161585;27;20208;-87
2023/08/28 08:39:00;;;;;;;0.30;0.30;;;;;;;;;;5161435;27;20191;-88
2023/08/28 08:41:29;;;;;;;0.30;0.30;;;;;;;;;;5161087;27;20235;-87
2023/08/28 08:43:58;;;;;;;0.30;0.30;;;;;;;;;;5162394;27;20197;-87
2023/08/28 08:46:26;;;;;;;0.63;0.63;;;;;;;;;;5161982;27;20226;-87
2023/08/28 08:48:56;;;;;;;0.33;0.33;;;;;;;;;;5162183;27;20222;-87
2023/08/28 08:51:28;;;;;;;0.50;0.50;;;;;;;;;;5161798;27;20241;-87
2023/08/28 08:54:00;;;;;;;0.67;0.50;;;;;;;;;;5162021;27;20207;-88
2023/08/28 08:56:29;;;;;;;0.30;0.30;;;;;;;;;;5160725;27;20323;-87
2023/08/28 08:58:58;;;;;;;0.30;0.30;;;;;;;;;;5161415;27;20290;-87
2023/08/28 09:01:27;;;;;;;0.40;0.40;;;;;;;;;;5162887;27;20270;-87
2023/08/28 09:03:57;;;;;;;2.73;0.60;;;;;;;;;;5162085;27;20224;-87
2023/08/28 09:06:32;;;;;;;4.50;0.73;;;;;;;;;;5161407;27;20273;-87
2023/08/28 09:09:05;;;;;;;0.67;0.67;;;;;;;;;;5161192;27;20193;-87
2023/08/28 09:11:36;;;;;;;0.67;0.67;;;;;;;;;;5160608;27;20199;-88
2023/08/28 09:14:05;;;;;;;0.47;0.47;;;;;;;;;;5160601;27;20199;-87
2023/08/28 09:16:35;;;;;;;0.43;0.43;;;;;;;;;;5161029;27;20503;-87
2023/08/28 09:19:04;;;;;;;1.80;0.50;;;;;;;;;;5161378;27;20274;-87
2023/08/28 09:21:36;;;;;;;3.70;0.97;;;;;;;;;;5160907;27;20209;-87
2023/08/28 09:24:09;;;;;;;0.60;0.60;;;;;;;;;;5161108;27;20217;-87
2023/08/28 09:26:39;;;;;;;0.43;0.43;;;;;;;;;;5161372;27;20203;-87
2023/08/28 09:29:13;;;;;;;0.30;0.30;;;;;;;;;;5160585;27;20194;-87
2023/08/28 09:31:42;;;;;;;0.97;0.97;;;;;;;;;;5160977;27;20187;-87
2023/08/28 09:37:48;;;;;;;0.97;0.80;;;;;;;;;;5254284;22;20222;-85
2023/08/28 09:40:26;;;;;;;0.50;0.50;;;;;;;;;;5033375;28;20209;-83
2023/08/28 09:42:55;;;;;;;0.50;0.50;;;;;;;;;;5034117;28;20295;-84
2023/08/28 09:45:23;;;;;;;0.40;0.40;;;;;;;;;;5033966;28;20197;-84
2023/08/28 09:47:54;;;;;;;0.57;0.40;;;;;;;;;;5033346;28;20303;-85
2023/08/28 09:50:26;;;;;;;0.40;0.40;;;;;;;;;;5034157;28;20230;-87
2023/08/28 09:52:56;;;;;;;1.00;0.93;;;;;;;;;;5034634;28;20226;-84
2023/08/28 09:55:24;;;;;;;0.40;0.40;;;;;;;;;;5034393;28;20220;-83
2023/08/28 09:57:54;;;;;;;0.50;0.50;;;;;;;;;;5033922;28;20207;-84
2023/08/28 10:00:23;;;;;;;0.40;0.40;;;;;;;;;;5033841;28;20198;-84
2023/08/28 10:02:52;;;;;;;0.70;0.70;;;;;;;;;;5034458;28;20203;-83
2023/08/28 10:05:22;;;;;;;0.60;0.60;;;;;;;;;;5033955;28;20202;-84
2023/08/28 10:07:55;;;;;;;0.50;0.50;;;;;;;;;;5033856;28;20215;-84
2023/08/28 10:10:29;;;;;;;0.40;0.40;;;;;;;;;;5034162;28;20202;-84
2023/08/28 10:12:57;;;;;;;0.50;0.50;;;;;;;;;;5034105;28;20204;-84
2023/08/28 10:15:26;;;;;;;0.40;0.40;;;;;;;;;;5032780;28;20199;-84
2023/08/28 10:17:56;;;;;;;0.67;0.67;;;;;;;;;;5033954;28;20271;-84
2023/08/28 10:20:26;;;;;;;0.50;0.50;;;;;;;;;;5033574;28;20281;-83
2023/08/28 10:22:55;;;;;;;0.47;0.47;;;;;;;;;;5033976;28;20197;-83
2023/08/28 10:25:25;;;;;;;0.50;0.50;;;;;;;;;;5033094;28;20232;-83
2023/08/28 10:27:56;;;;;;;0.97;0.97;;;;;;;;;;5033738;28;20216;-84
2023/08/28 10:30:26;;;;;;;2.27;0.53;;;;;;;;;;5033222;28;20248;-83
2023/08/28 10:32:55;;;;;;;1.93;0.60;;;;;;;;;;5033386;28;20231;-84
2023/08/28 10:35:24;;;;;;;0.67;0.67;;;;;;;;;;5033007;28;20212;-84
2023/08/28 10:37:54;;;;;;;0.80;0.80;;;;;;;;;;5033562;28;20263;-84
2023/08/28 10:40:23;;;;;;;4.27;0.53;;;;;;;;;;5034906;28;20200;-84
2023/08/28 10:42:54;;;;;;;3.30;0.73;;;;;;;;;;5033494;28;20207;-83
2023/08/28 10:45:24;;;;;;;0.57;0.57;;;;;;;;;;5033624;28;20302;-84
2023/08/28 10:47:53;;;;;;;1.13;1.07;;;;;;;;;;5032980;28;20285;-83
2023/08/28 10:50:21;;;;;;;0.20;0.20;;;;;;;;;;5032496;28;20200;-83
2023/08/28 10:52:50;;;;;;;0.27;0.27;;;;;;;;;;5032955;28;20208;-83
2023/08/28 10:55:20;;;;;;;0.37;0.37;;;;;;;;;;5035027;28;20199;-83
2023/08/28 10:57:52;;;;;;;0.67;0.67;;;;;;;;;;5031738;28;20203;-83
2023/08/28 11:00:21;;;;;;;0.60;0.60;;;;;;;;;;5032627;28;20213;-84
2023/08/28 11:03:09;;;;;;;2.33;0.60;;;;;;;;;;5032950;28;20246;-83
2023/08/28 11:05:39;;;;;;;1.47;0.63;;;;;;;;;;5032223;28;20263;-83
2023/08/28 11:08:09;;;;;;;0.20;0.20;;;;;;;;;;5032259;28;20252;-82
2023/08/28 11:10:39;;;;;;;0.50;0.50;;;;;;;;;;5032786;28;20207;-83
2023/08/28 11:13:08;;;;;;;0.33;0.33;;;;;;;;;;5033192;28;20249;-84
2023/08/28 11:15:41;;;;;;;0.43;0.43;;;;;;;;;;5032756;28;20215;-83
2023/08/28 11:18:18;;;;;;;0.30;0.30;;;;;;;;;;5031825;28;20281;-83
2023/08/28 11:20:48;;;;;;;0.40;0.40;;;;;;;;;;5032203;28;20203;-84
2023/08/28 11:23:23;;;;;;;0.40;0.40;;;;;;;;;;5033049;28;20204;-83
2023/08/28 11:25:55;;;;;;;0.83;0.83;;;;;;;;;;5033009;28;20205;-83
2023/08/28 11:28:29;;;;;;;0.30;0.30;;;;;;;;;;5032100;28;20277;-83
2023/08/28 11:31:03;;;;;;;0.60;0.60;;;;;;;;;;5032829;28;20212;-83
2023/08/28 11:33:42;;;;;;;0.60;0.60;;;;;;;;;;5033147;28;20253;-84
2023/08/28 11:36:14;;;;;;;1.03;0.90;;;;;;;;;;5032672;28;20230;-84
2023/08/28 11:38:43;;;;;;;4.80;0.60;;;;;;;;;;5032060;28;20228;-83
2023/08/28 11:41:12;;;;;;;0.60;0.60;;;;;;;;;;5033034;28;20193;-83
2023/08/28 11:43:41;;;;;;;0.50;0.50;;;;;;;;;;5032272;28;20203;-83
2023/08/28 11:46:12;;;;;;;2.37;1.10;;;;;;;;;;5034670;28;20295;-83
2023/08/28 11:48:48;;;;;;;0.40;0.40;;;;;;;;;;5036566;28;20229;-83
2023/08/28 11:51:17;;;;;;;3.80;0.90;;;;;;;;;;5037370;28;20210;-83
2023/08/28 11:53:46;;;;;;;0.30;0.30;;;;;;;;;;5037446;28;20209;-83
2023/08/28 11:56:14;;;;;;;0.30;0.30;;;;;;;;;;5035914;28;20201;-83
2023/08/28 11:58:43;;;;;;;0.60;0.60;;;;;;;;;;5036112;28;20204;-82
2023/08/28 12:01:12;;;;;;;0.30;0.30;;;;;;;;;;5035557;28;20189;-83
2023/08/28 12:03:44;;;;;;;0.30;0.30;;;;;;;;;;5035325;28;20214;-84
2023/08/28 12:06:17;;;;;;;0.30;0.30;;;;;;;;;;5035847;28;20308;-83
2023/08/28 12:08:46;;;;;;;0.50;0.50;;;;;;;;;;5035478;28;20217;-83
2023/08/28 12:11:15;;;;;;;0.57;0.47;;;;;;;;;;5035927;28;20206;-83
2023/08/28 12:13:44;;;;;;;0.50;0.50;;;;;;;;;;5036021;28;20301;-83
2023/08/28 12:16:15;;;;;;;0.47;0.47;;;;;;;;;;5035656;28;20210;-83
2023/08/28 12:18:47;;;;;;;3.80;0.63;;;;;;;;;;5035218;28;20209;-83
2023/08/28 12:21:16;;;;;;;0.30;0.30;;;;;;;;;;5035874;28;20197;-83
2023/08/28 12:23:53;;;;;;;0.97;0.60;;;;;;;;;;5035591;28;20232;-85
2023/08/28 12:26:23;;;;;;;0.57;0.57;;;;;;;;;;5035369;28;20258;-85
2023/08/28 12:28:52;;;;;;;0.43;0.43;;;;;;;;;;5034550;28;20249;-83
2023/08/28 12:31:27;;;;;;;1.47;0.97;;;;;;;;;;5035732;28;20213;-83
2023/08/28 12:33:57;;;;;;;0.50;0.50;;;;;;;;;;5036273;28;20198;-83
2023/08/28 12:36:36;;;;;;;2.30;0.70;;;;;;;;;;5035579;28;20234;-83
2023/08/28 12:39:05;;;;;;;0.50;0.50;;;;;;;;;;5035721;28;20320;-84
2023/08/28 12:41:37;;;;;;;0.90;0.80;;;;;;;;;;5035627;28;20209;-83
2023/08/28 12:44:06;;;;;;;0.40;0.40;;;;;;;;;;5035537;28;20208;-83
2023/08/28 12:46:35;;;;;;;0.83;0.63;;;;;;;;;;5035965;28;20200;-83
2023/08/28 12:49:06;;;;;;;0.87;0.83;;;;;;;;;;5035263;28;20217;-84
2023/08/28 12:51:34;;;;;;;0.40;0.40;;;;;;;;;;5036275;28;20212;-83
2023/08/28 12:54:05;;;;;;;0.73;0.70;;;;;;;;;;5035808;28;20211;-82
2023/08/28 12:56:34;;;;;;;0.60;0.60;;;;;;;;;;5035403;28;20225;-82
2023/08/28 12:59:03;;;;;;;0.50;0.50;;;;;;;;;;5034557;28;20184;-83
2023/08/28 13:01:32;;;;;;;0.43;0.43;;;;;;;;;;5034893;28;20200;-82
2023/08/28 13:04:01;;;;;;;0.30;0.30;;;;;;;;;;5034823;28;20196;-83
2023/08/28 13:06:31;;;;;;;0.47;0.47;;;;;;;;;;5035176;28;20235;-83
2023/08/28 13:08:59;;;;;;;0.40;0.40;;;;;;;;;;5034622;28;20228;-83
2023/08/28 13:11:28;;;;;;;0.50;0.50;;;;;;;;;;5034758;28;20206;-84
2023/08/28 13:13:58;;;;;;;0.60;0.60;;;;;;;;;;5034505;28;20206;-83
2023/08/28 13:16:27;;;;;;;0.60;0.60;;;;;;;;;;5034492;28;20209;-83
2023/08/28 13:18:56;;;;;;;0.90;0.90;;;;;;;;;;5034346;28;20291;-83
2023/08/28 13:21:24;;;;;;;1.50;0.50;;;;;;;;;;5033872;28;20205;-83
2023/08/28 13:23:55;;;;;;;0.33;0.33;;;;;;;;;;5034017;28;20234;-83
2023/08/28 13:26:23;;;;;;;5.67;1.07;;;;;;;;;;5034737;28;20205;-83
2023/08/28 13:28:52;;;;;;;0.40;0.40;;;;;;;;;;5034098;28;20227;-84
2023/08/28 13:31:21;;;;;;;0.63;0.63;;;;;;;;;;5034106;28;20211;-83
2023/08/28 13:33:49;;;;;;;10.87;1.13;;;;;;;;;;5034067;28;20290;-83
2023/08/28 13:36:19;;;;;;;0.40;0.40;;;;;;;;;;5033766;28;20220;-83
2023/08/28 13:38:48;;;;;;;2.03;0.60;;;;;;;;;;5032579;28;20234;-83
2023/08/28 13:41:19;;;;;;;0.83;0.83;;;;;;;;;;5033557;28;20209;-83
2023/08/28 13:43:47;;;;;;;2.10;0.50;;;;;;;;;;5033499;28;20201;-83
2023/08/28 13:46:16;;;;;;;0.50;0.50;;;;;;;;;;5033006;28;20220;-83
2023/08/28 13:48:45;;;;;;;4.03;0.50;;;;;;;;;;5032510;28;20287;-82
2023/08/28 13:51:13;;;;;;;0.40;0.40;;;;;;;;;;5033165;28;20199;-83
2023/08/28 13:53:42;;;;;;;0.40;0.40;;;;;;;;;;5033438;28;20235;-83
2023/08/28 13:56:11;;;;;;;0.53;0.53;;;;;;;;;;5032880;28;20208;-84
2023/08/28 13:58:41;;;;;;;0.50;0.50;;;;;;;;;;5032641;28;20449;-81
2023/08/28 14:01:09;;;;;;;0.53;0.53;;;;;;;;;;5033068;28;20210;-83
2023/08/28 14:03:38;;;;;;;0.83;0.70;;;;;;;;;;5033345;28;20203;-83
2023/08/28 14:06:07;;;;;;;0.87;0.40;;;;;;;;;;5032648;28;20205;-84
2023/08/28 14:08:35;;;;;;;0.37;0.37;;;;;;;;;;5032890;28;20229;-83
2023/08/28 14:11:07;;;;;;;0.40;0.40;;;;;;;;;;5032030;28;20192;-83
2023/08/28 14:13:36;;;;;;;0.50;0.50;;;;;;;;;;5032785;28;20215;-83
2023/08/28 14:16:11;;;;;;;0.50;0.50;;;;;;;;;;5033400;28;20204;-82
2023/08/28 14:18:40;;;;;;;1.80;0.80;;;;;;;;;;5032568;28;20296;-83
2023/08/28 14:21:09;;;;;;;0.40;0.40;;;;;;;;;;5033319;28;20202;-84
2023/08/28 14:23:37;;;;;;;0.37;0.37;;;;;;;;;;5032912;28;20207;-83
2023/08/28 14:26:06;;;;;;;1.07;0.70;;;;;;;;;;5032985;28;20193;-83
2023/08/28 14:28:35;;;;;;;0.50;0.50;;;;;;;;;;5032670;28;20430;-83
2023/08/28 14:31:04;;;;;;;0.50;0.50;;;;;;;;;;5033032;28;20204;-83
2023/08/28 14:33:36;;;;;;;0.50;0.50;;;;;;;;;;5033247;28;20233;-84
2023/08/28 14:36:04;;;;;;;0.50;0.50;;;;;;;;;;5032231;28;20247;-83
2023/08/28 14:38:33;;;;;;;1.10;0.70;;;;;;;;;;5032103;28;20241;-84
2023/08/28 14:41:02;;;;;;;0.50;0.50;;;;;;;;;;5031704;28;20201;-84
2023/08/28 14:43:31;;;;;;;0.40;0.40;;;;;;;;;;5032165;28;20208;-83
2023/08/28 14:46:00;;;;;;;0.60;0.60;;;;;;;;;;5032229;28;20201;-83
2023/08/28 14:48:29;;;;;;;0.40;0.40;;;;;;;;;;5032641;28;20214;-83
2023/08/28 14:50:58;;;;;;;0.70;0.70;;;;;;;;;;5031618;28;20230;-83
2023/08/28 14:53:27;;;;;;;0.90;0.90;;;;;;;;;;5032274;28;20214;-83
2023/08/28 14:55:56;;;;;;;0.40;0.40;;;;;;;;;;5032170;28;20196;-83
2023/08/28 14:58:24;;;;;;;0.30;0.30;;;;;;;;;;5031680;28;20208;-83
2023/08/28 15:00:54;;;;;;;0.40;0.40;;;;;;;;;;5032372;28;20198;-84